createdAt,value
2022-08-24T00:02:28.638Z,52.96
2022-08-24T00:05:17.861Z,52.73
2022-08-24T00:08:06.391Z,52.98
2022-08-24T00:10:56.240Z,52.88
2022-08-24T00:13:45.369Z,52.88
2022-08-24T00:16:35.402Z,52.71
2022-08-24T00:19:24.167Z,52.79
2022-08-24T00:22:13.303Z,52.96
2022-08-24T00:25:01.894Z,53.04
2022-08-24T00:27:52.142Z,52.84
2022-08-24T00:30:40.756Z,52.48
2022-08-24T00:33:29.315Z,52.76
2022-08-24T00:36:21.991Z,52.59
2022-08-24T00:39:10.623Z,52.50
2022-08-24T00:41:59.206Z,52.50
2022-08-24T00:44:49.089Z,52.42
2022-08-24T00:47:47.776Z,52.36
2022-08-24T00:50:39.535Z,52.62
2022-08-24T00:53:32.400Z,52.51
2022-08-24T00:56:23.693Z,52.71
2022-08-24T00:59:14.666Z,52.55
2022-08-24T01:02:15.851Z,52.35
2022-08-24T01:05:08.333Z,52.51
2022-08-24T01:07:56.902Z,52.73
2022-08-24T01:10:50.729Z,52.17
2022-08-24T01:13:39.489Z,52.33
2022-08-24T01:16:45.369Z,52.31
2022-08-24T01:19:38.907Z,52.58
2022-08-24T01:22:54.560Z,52.57
2022-08-24T01:25:45.568Z,52.68
2022-08-24T01:28:36.973Z,52.40
2022-08-24T01:31:26.355Z,52.42
2022-08-24T01:34:15.051Z,52.37
2022-08-24T01:37:04.640Z,52.58
2022-08-24T01:39:55.557Z,52.57
2022-08-24T01:42:50.959Z,52.24
2022-08-24T01:45:39.623Z,52.36
2022-08-24T01:48:28.216Z,52.39
2022-08-24T01:51:16.806Z,52.34
2022-08-24T01:54:06.927Z,52.56
2022-08-24T01:56:55.582Z,52.66
2022-08-24T01:59:45.924Z,52.32
2022-08-24T02:02:34.555Z,52.21
2022-08-24T02:05:26.139Z,51.99
2022-08-24T02:08:14.787Z,52.35
2022-08-24T02:11:04.133Z,52.53
2022-08-24T02:13:52.737Z,52.20
2022-08-24T02:16:43.182Z,52.16
2022-08-24T02:19:31.859Z,52.29
2022-08-24T02:22:20.425Z,52.25
2022-08-24T02:25:09.757Z,52.05
2022-08-24T02:28:02.899Z,52.08
2022-08-24T02:30:51.712Z,52.32
2022-08-24T02:33:42.809Z,51.88
2022-08-24T02:36:31.505Z,52.17
2022-08-24T02:39:20.038Z,52.05
2022-08-24T02:42:08.819Z,51.96
2022-08-24T02:44:57.349Z,51.79
2022-08-24T02:47:45.988Z,51.68
2022-08-24T02:50:40.195Z,52.00
2022-08-24T02:53:28.751Z,51.87
2022-08-24T02:56:18.135Z,51.78
2022-08-24T02:59:06.662Z,51.78
2022-08-24T03:01:55.282Z,52.11
2022-08-24T03:04:43.891Z,52.01
2022-08-24T03:07:39.807Z,51.66
2022-08-24T03:10:28.297Z,51.86
2022-08-24T03:13:17.332Z,52.19
2022-08-24T03:16:06.334Z,51.95
2022-08-24T03:18:54.950Z,51.57
2022-08-24T03:21:43.620Z,51.87
2022-08-24T03:24:33.920Z,51.76
2022-08-24T03:27:22.489Z,51.83
2022-08-24T03:30:13.868Z,51.89
2022-08-24T03:33:02.503Z,51.96
2022-08-24T03:35:51.197Z,51.60
2022-08-24T03:38:39.689Z,52.00
2022-08-24T03:41:29.772Z,51.78
2022-08-24T03:44:23.313Z,51.89
2022-08-24T03:47:12.119Z,51.58
2022-08-24T03:50:00.668Z,51.94
2022-08-24T03:52:49.538Z,51.59
2022-08-24T03:55:38.032Z,51.54
2022-08-24T03:58:28.299Z,51.54
2022-08-24T04:01:18.040Z,51.65
2022-08-24T04:04:07.391Z,51.77
2022-08-24T04:06:55.867Z,51.89
2022-08-24T04:09:44.483Z,51.53
2022-08-24T04:12:32.961Z,51.68
2022-08-24T04:15:24.507Z,51.53
2022-08-24T04:18:13.201Z,51.52
2022-08-24T04:21:04.675Z,51.79
2022-08-24T04:23:53.614Z,51.63
2022-08-24T04:26:45.152Z,51.68
2022-08-24T04:29:34.426Z,51.74
2022-08-24T04:32:24.507Z,51.76
2022-08-24T04:35:13.073Z,51.64
2022-08-24T04:38:01.569Z,51.74
2022-08-24T04:40:50.162Z,51.60
2022-08-24T04:43:39.207Z,51.62
2022-08-24T04:46:29.441Z,51.55
2022-08-24T04:49:19.391Z,51.89
2022-08-24T04:52:08.174Z,51.67
2022-08-24T04:54:56.765Z,51.45
2022-08-24T04:57:45.461Z,51.67
2022-08-24T05:00:36.852Z,51.68
2022-08-24T05:03:25.439Z,51.72
2022-08-24T05:06:16.497Z,51.59
2022-08-24T05:09:06.786Z,51.54
2022-08-24T05:11:55.642Z,51.50
2022-08-24T05:14:44.143Z,51.59
2022-08-24T05:17:33.816Z,51.27
2022-08-24T05:20:22.465Z,51.25
2022-08-24T05:23:12.849Z,51.51
2022-08-24T05:26:06.787Z,51.15
2022-08-24T05:28:56.434Z,51.29
2022-08-24T05:31:46.363Z,51.38
2022-08-24T05:34:35.337Z,51.36
2022-08-24T05:37:24.624Z,51.36
2022-08-24T05:40:17.836Z,51.54
2022-08-24T05:43:06.518Z,51.55
2022-08-24T05:45:55.287Z,51.60
2022-08-24T05:48:43.850Z,51.65
2022-08-24T05:51:42.674Z,51.68
2022-08-24T05:54:31.286Z,51.45
2022-08-24T05:57:21.392Z,51.36
2022-08-24T06:00:11.904Z,51.91
2022-08-24T06:03:00.569Z,51.66
2022-08-24T06:05:49.313Z,51.63
2022-08-24T06:08:41.535Z,51.91
2022-08-24T06:11:32.637Z,51.75
2022-08-24T06:14:26.811Z,52.15
2022-08-24T06:17:15.791Z,51.52
2022-08-24T06:20:05.350Z,51.23
2022-08-24T06:22:53.896Z,50.88
2022-08-24T06:26:00.028Z,51.42
2022-08-24T06:28:48.659Z,51.24
2022-08-24T06:31:41.825Z,50.55
2022-08-24T06:34:30.678Z,51.18
2022-08-24T06:37:19.470Z,50.74
2022-08-24T06:40:10.295Z,51.02
2022-08-24T06:43:04.323Z,51.10
2022-08-24T06:45:53.312Z,50.86
2022-08-24T06:48:43.294Z,51.42
2022-08-24T06:51:32.442Z,51.33
2022-08-24T06:54:21.816Z,51.48
2022-08-24T06:57:10.412Z,51.47
2022-08-24T06:59:59.098Z,51.42
2022-08-24T07:02:47.681Z,52.06
2022-08-24T07:05:37.867Z,51.83
2022-08-24T07:08:28.304Z,52.21
2022-08-24T07:11:18.694Z,52.06
2022-08-24T07:14:07.798Z,51.50
2022-08-24T07:16:56.469Z,51.97
2022-08-24T07:19:45.956Z,51.67
2022-08-24T07:22:35.873Z,51.90
2022-08-24T07:25:24.512Z,51.87
2022-08-24T07:28:14.582Z,52.00
2022-08-24T07:31:04.645Z,52.27
2022-08-24T07:33:53.264Z,52.54
2022-08-24T07:36:44.466Z,52.60
2022-08-24T07:39:34.616Z,52.39
2022-08-24T07:42:31.237Z,52.20
2022-08-24T07:45:20.783Z,52.81
2022-08-24T07:48:11.683Z,52.36
2022-08-24T07:51:08.561Z,52.33
2022-08-24T07:53:57.103Z,52.36
2022-08-24T07:56:47.243Z,52.46
2022-08-24T07:59:36.358Z,52.56
2022-08-24T08:02:29.541Z,52.36
2022-08-24T08:05:24.977Z,52.48
2022-08-24T08:08:13.658Z,52.22
2022-08-24T08:11:02.666Z,52.46
2022-08-24T08:13:54.209Z,52.27
2022-08-24T08:16:42.835Z,52.48
2022-08-24T08:19:32.419Z,52.09
2022-08-24T08:22:38.723Z,52.50
2022-08-24T08:25:27.247Z,52.31
2022-08-24T08:28:25.300Z,51.95
2022-08-24T08:31:16.153Z,52.40
2022-08-24T08:34:05.162Z,52.21
2022-08-24T08:36:54.202Z,52.38
2022-08-24T08:39:43.119Z,52.48
2022-08-24T08:42:58.066Z,52.53
2022-08-24T08:46:06.481Z,52.14
2022-08-24T08:49:24.602Z,52.32
2022-08-24T08:52:40.025Z,51.97
2022-08-24T08:55:32.817Z,51.89
2022-08-24T08:58:39.359Z,52.23
2022-08-24T09:01:33.381Z,52.26
2022-08-24T09:04:39.700Z,51.81
2022-08-24T09:07:37.471Z,52.19
2022-08-24T09:10:44.076Z,52.17
2022-08-24T09:13:46.702Z,52.00
2022-08-24T09:16:51.893Z,52.51
2022-08-24T09:19:52.170Z,52.14
2022-08-24T09:22:43.483Z,52.13
2022-08-24T09:25:39.939Z,52.33
2022-08-24T09:28:37.715Z,51.81
2022-08-24T09:31:51.874Z,51.84
2022-08-24T09:34:51.392Z,52.06
2022-08-24T09:37:56.689Z,51.98
2022-08-24T09:41:03.185Z,51.87
2022-08-24T09:44:14.582Z,51.56
2022-08-24T09:47:24.263Z,51.48
2022-08-24T09:50:28.401Z,51.74
2022-08-24T09:53:33.918Z,50.77
2022-08-24T09:56:40.337Z,50.69
2022-08-24T09:59:48.899Z,50.18
2022-08-24T10:02:57.159Z,51.00
2022-08-24T10:06:05.496Z,50.41
2022-08-24T10:09:11.681Z,49.87
2022-08-24T10:12:06.080Z,50.48
2022-08-24T10:14:56.506Z,50.52
2022-08-24T10:17:56.814Z,50.75
2022-08-24T10:20:58.157Z,50.72
2022-08-24T10:24:07.100Z,50.00
2022-08-24T10:27:08.492Z,50.09
2022-08-24T10:30:11.830Z,50.28
2022-08-24T10:33:10.885Z,50.10
2022-08-24T10:36:33.005Z,51.39
2022-08-24T10:39:42.844Z,51.09
2022-08-24T10:43:03.792Z,51.07
2022-08-24T10:46:10.209Z,50.86
2022-08-24T10:49:43.906Z,50.28
2022-08-24T10:53:09.906Z,49.24
2022-08-24T10:56:08.376Z,49.28
2022-08-24T10:59:04.846Z,49.06
2022-08-24T11:02:12.326Z,49.99
2022-08-24T11:05:03.622Z,48.97
2022-08-24T11:07:59.470Z,48.30
2022-08-24T11:10:49.209Z,48.63
2022-08-24T11:13:51.388Z,48.58
2022-08-24T11:16:42.782Z,48.98
2022-08-24T11:19:33.181Z,47.81
2022-08-24T11:22:41.022Z,48.52
2022-08-24T11:25:32.144Z,46.99
2022-08-24T11:28:27.294Z,47.67
2022-08-24T11:31:23.578Z,47.21
2022-08-24T11:34:17.677Z,47.68
2022-08-24T11:37:15.668Z,47.74
2022-08-24T11:40:05.920Z,48.32
2022-08-24T11:43:08.424Z,48.33
2022-08-24T11:46:05.733Z,48.44
2022-08-24T11:49:04.838Z,49.38
2022-08-24T11:51:56.890Z,48.11
2022-08-24T11:54:48.027Z,47.71
2022-08-24T11:57:39.330Z,47.50
2022-08-24T12:00:44.968Z,48.56
2022-08-24T12:03:49.371Z,48.79
2022-08-24T12:06:49.362Z,48.42
2022-08-24T12:09:48.830Z,47.54
2022-08-24T12:12:40.944Z,48.03
2022-08-24T12:15:38.970Z,48.87
2022-08-24T12:18:32.198Z,48.24
2022-08-24T12:21:23.189Z,48.34
2022-08-24T12:24:16.538Z,48.38
2022-08-24T12:27:10.762Z,48.95
2022-08-24T12:30:05.250Z,48.85
2022-08-24T12:32:57.891Z,48.92
2022-08-24T12:35:49.472Z,47.54
2022-08-24T12:38:41.024Z,48.36
2022-08-24T12:41:33.650Z,49.10
2022-08-24T12:44:25.468Z,49.09
2022-08-24T12:47:19.365Z,48.99
2022-08-24T12:50:13.141Z,48.75
2022-08-24T12:53:30.294Z,48.07
2022-08-24T12:56:44.359Z,49.04
2022-08-24T12:59:36.920Z,48.69
2022-08-24T13:02:32.866Z,48.90
2022-08-24T13:05:22.205Z,48.39
2022-08-24T13:08:13.280Z,47.56
2022-08-24T13:11:06.343Z,47.59
2022-08-24T13:14:18.630Z,48.42
2022-08-24T13:17:13.081Z,48.69
2022-08-24T13:20:20.746Z,49.29
2022-08-24T13:23:18.802Z,48.98
2022-08-24T13:26:26.566Z,48.82
2022-08-24T13:29:18.355Z,49.09
2022-08-24T13:32:07.537Z,49.39
2022-08-24T13:34:58.425Z,49.33
2022-08-24T13:38:30.530Z,49.62
2022-08-24T13:41:46.805Z,49.76
2022-08-24T13:44:53.978Z,48.99
2022-08-24T13:47:59.903Z,49.23
2022-08-24T13:51:16.879Z,48.81
2022-08-24T13:54:20.223Z,49.02
2022-08-24T13:57:26.492Z,49.20
2022-08-24T14:00:39.316Z,49.15
2022-08-24T14:03:46.168Z,48.60
2022-08-24T14:06:39.212Z,48.39
2022-08-24T14:09:38.156Z,48.07
2022-08-24T14:12:54.078Z,49.11
2022-08-24T14:16:11.274Z,49.36
2022-08-24T14:19:06.426Z,48.90
2022-08-24T14:22:00.799Z,49.03
2022-08-24T14:24:58.570Z,48.62
2022-08-24T14:27:50.947Z,48.06
2022-08-24T14:30:43.656Z,48.29
2022-08-24T14:33:35.234Z,49.26
2022-08-24T14:36:45.986Z,48.86
2022-08-24T14:39:38.519Z,49.25
2022-08-24T14:42:37.220Z,48.98
2022-08-24T14:45:50.272Z,49.23
2022-08-24T14:48:50.313Z,49.36
2022-08-24T14:52:05.848Z,48.11
2022-08-24T14:55:05.570Z,48.32
2022-08-24T14:58:08.187Z,49.43
2022-08-24T15:01:08.266Z,49.43
2022-08-24T15:04:08.503Z,49.22
2022-08-24T15:06:58.900Z,49.19
2022-08-24T15:09:48.109Z,49.82
2022-08-24T15:12:39.441Z,49.33
2022-08-24T15:15:34.064Z,49.86
2022-08-24T15:18:28.422Z,50.33
2022-08-24T15:21:28.054Z,49.34
2022-08-24T15:27:19.755Z,49.82
2022-08-24T15:30:18.552Z,49.41
2022-08-24T15:33:11.097Z,49.46
2022-08-24T15:36:09.713Z,49.47
2022-08-24T15:38:59.703Z,49.62
2022-08-24T15:41:48.258Z,49.77
2022-08-24T15:44:37.882Z,49.55
2022-08-24T15:47:30.252Z,49.58
2022-08-24T15:50:23.731Z,48.70
2022-08-24T15:53:31.239Z,48.82
2022-08-24T15:56:35.936Z,48.74
2022-08-24T15:59:29.467Z,48.34
2022-08-24T16:02:29.244Z,48.33
2022-08-24T16:05:21.825Z,48.42
2022-08-24T16:08:13.357Z,49.23
2022-08-24T16:11:10.848Z,49.13
2022-08-24T16:14:01.088Z,48.90
2022-08-24T16:16:54.145Z,48.87
2022-08-24T16:19:42.715Z,48.11
2022-08-24T16:22:34.835Z,47.79
2022-08-24T16:25:27.269Z,48.33
2022-08-24T16:28:35.761Z,48.58
2022-08-24T16:31:52.828Z,48.56
2022-08-24T16:34:42.998Z,48.83
2022-08-24T16:37:32.272Z,48.99
2022-08-24T16:40:20.954Z,49.25
2022-08-24T16:43:09.563Z,49.16
2022-08-24T16:45:58.285Z,48.93
2022-08-24T16:48:48.157Z,48.98
2022-08-24T16:51:36.676Z,49.34
2022-08-24T16:54:32.241Z,49.41
2022-08-24T16:57:24.346Z,49.11
2022-08-24T17:00:17.331Z,48.49
2022-08-24T17:03:06.618Z,48.97
2022-08-24T17:05:56.690Z,48.53
2022-08-24T17:08:45.220Z,48.57
2022-08-24T17:11:34.465Z,48.52
2022-08-24T17:14:22.971Z,48.55
2022-08-24T17:17:13.728Z,48.82
2022-08-24T17:20:02.280Z,48.98
2022-08-24T17:22:52.148Z,48.59
2022-08-24T17:25:41.851Z,49.09
2022-08-24T17:28:30.716Z,48.93
2022-08-24T17:31:19.248Z,49.36
2022-08-24T17:34:08.704Z,49.42
2022-08-24T17:36:57.869Z,49.32
2022-08-24T17:39:48.505Z,49.74
2022-08-24T17:42:52.396Z,49.41
2022-08-24T17:45:42.410Z,49.26
2022-08-24T17:48:34.069Z,49.21
2022-08-24T17:51:22.678Z,49.74
2022-08-24T17:54:11.229Z,50.16
2022-08-24T17:57:01.276Z,50.36
2022-08-24T17:59:50.804Z,50.32
2022-08-24T18:02:39.539Z,50.40
2022-08-24T18:05:29.453Z,51.02
2022-08-24T18:08:17.959Z,50.60
2022-08-24T18:11:06.516Z,50.33
2022-08-24T18:13:56.378Z,50.23
2022-08-24T18:16:54.038Z,50.39
2022-08-24T18:19:42.854Z,50.84
2022-08-24T18:22:31.322Z,50.62
2022-08-24T18:25:22.907Z,51.03
2022-08-24T18:28:11.523Z,50.69
2022-08-24T18:31:01.403Z,50.98
2022-08-24T18:33:49.942Z,51.27
2022-08-24T18:36:38.635Z,51.28
2022-08-24T18:39:27.485Z,51.23
2022-08-24T18:42:16.135Z,51.03
2022-08-24T18:45:05.818Z,51.05
2022-08-24T18:47:55.641Z,51.40
2022-08-24T18:50:44.165Z,51.40
2022-08-24T18:53:35.472Z,51.00
2022-08-24T18:56:24.752Z,51.57
2022-08-24T18:59:15.126Z,51.28
2022-08-24T19:02:31.208Z,51.39
2022-08-24T19:05:23.947Z,51.39
2022-08-24T19:08:12.519Z,51.63
2022-08-24T19:11:01.065Z,51.29
2022-08-24T19:13:49.556Z,51.29
2022-08-24T19:16:38.247Z,51.34
2022-08-24T19:19:26.852Z,51.87
2022-08-24T19:22:17.302Z,51.30
2022-08-24T19:25:06.897Z,51.73
2022-08-24T19:27:56.009Z,51.35
2022-08-24T19:30:46.686Z,51.45
2022-08-24T19:33:36.621Z,51.85
2022-08-24T19:36:25.296Z,51.46
2022-08-24T19:39:15.234Z,51.89
2022-08-24T19:42:04.985Z,52.26
2022-08-24T19:45:11.493Z,51.99
2022-08-24T19:48:00.210Z,51.85
2022-08-24T19:50:48.664Z,51.52
2022-08-24T19:53:38.372Z,51.96
2022-08-24T19:56:28.251Z,51.80
2022-08-24T19:59:21.860Z,51.31
2022-08-24T20:02:10.413Z,51.31
2022-08-24T20:04:59.266Z,51.58
2022-08-24T20:07:48.473Z,51.97
2022-08-24T20:10:37.566Z,52.06
2022-08-24T20:13:27.490Z,52.11
2022-08-24T20:16:18.203Z,51.95
2022-08-24T20:19:07.227Z,51.80
2022-08-24T20:21:55.848Z,51.79
2022-08-24T20:24:44.469Z,51.92
2022-08-24T20:27:33.346Z,52.03
2022-08-24T20:30:23.431Z,51.85
2022-08-24T20:33:16.304Z,52.69
2022-08-24T20:36:06.020Z,51.99
2022-08-24T20:38:55.311Z,52.62
2022-08-24T20:41:45.394Z,52.61
2022-08-24T20:44:33.979Z,52.51
2022-08-24T20:47:24.095Z,53.02
2022-08-24T20:50:12.702Z,52.31
2022-08-24T20:53:01.240Z,53.08
2022-08-24T20:55:50.045Z,52.54
2022-08-24T20:58:40.221Z,52.56
2022-08-24T21:01:28.802Z,52.58
2022-08-24T21:04:18.654Z,53.07
2022-08-24T21:07:07.265Z,53.04
2022-08-24T21:09:57.352Z,52.52
2022-08-24T21:12:46.232Z,51.85
2022-08-24T21:15:34.985Z,51.87
2022-08-24T21:18:23.517Z,52.37
2022-08-24T21:21:15.524Z,51.90
2022-08-24T21:24:04.746Z,51.62
2022-08-24T21:26:53.622Z,52.34
2022-08-24T21:29:42.336Z,52.82
2022-08-24T21:32:48.462Z,52.19
2022-08-24T21:35:38.707Z,52.51
2022-08-24T21:38:28.658Z,52.46
2022-08-24T21:41:17.221Z,52.44
2022-08-24T21:44:05.926Z,51.82
2022-08-24T21:46:54.681Z,51.45
2022-08-24T21:49:43.306Z,50.66
2022-08-24T21:52:31.747Z,50.82
2022-08-24T21:55:21.739Z,51.10
2022-08-24T21:58:10.871Z,51.22
2022-08-24T22:00:59.775Z,51.11
2022-08-24T22:03:48.825Z,51.51
2022-08-24T22:06:37.270Z,51.72
2022-08-24T22:09:27.075Z,51.81
2022-08-24T22:12:16.908Z,51.83
2022-08-24T22:15:06.507Z,51.57
2022-08-24T22:17:55.308Z,51.81
2022-08-24T22:20:43.926Z,51.56
2022-08-24T22:23:32.463Z,51.90
2022-08-24T22:26:20.934Z,51.47
2022-08-24T22:29:11.880Z,51.73
2022-08-24T22:32:00.457Z,51.28
2022-08-24T22:34:48.978Z,51.40
2022-08-24T22:37:37.573Z,52.01
2022-08-24T22:40:27.180Z,52.03
2022-08-24T22:43:15.976Z,51.63
2022-08-24T22:46:05.908Z,51.41
2022-08-24T22:48:54.532Z,51.77
2022-08-24T22:51:43.061Z,51.53
2022-08-24T22:54:32.381Z,51.70
2022-08-24T22:57:20.797Z,51.25
2022-08-24T23:00:10.722Z,51.65
2022-08-24T23:03:05.153Z,51.48
2022-08-24T23:05:53.750Z,51.58
2022-08-24T23:08:42.341Z,51.55
2022-08-24T23:11:32.286Z,51.69
2022-08-24T23:14:21.890Z,51.61
2022-08-24T23:17:10.545Z,51.78
2022-08-24T23:20:06.211Z,51.98
2022-08-24T23:22:56.754Z,51.67
2022-08-24T23:25:45.271Z,51.80
2022-08-24T23:28:33.835Z,51.66
2022-08-24T23:31:22.947Z,51.90
2022-08-24T23:34:12.122Z,51.87
2022-08-24T23:37:02.670Z,51.42
2022-08-24T23:39:51.426Z,52.06
2022-08-24T23:42:39.973Z,52.02
2022-08-24T23:45:30.460Z,51.59
2022-08-24T23:48:19.176Z,51.77
2022-08-24T23:51:09.622Z,51.73
2022-08-24T23:53:59.629Z,51.67
2022-08-24T23:56:49.951Z,51.32
2022-08-24T23:59:38.745Z,51.58
